Albin, Mississippi
Current Conditions -  °F | °C
As of 1:55 AM on Thursday 23 Oct 2014 (Local Time) from KCKM Reporting Station
Clear Clear  
Wind Chill:   Ceiling: Unl
Heat Index:   Visibility: 10mi
Dew Point:   Wind: 3mph
Humidity: 93%   Direction: 20°NNE
Pressure: 30.18"   Gusts: NA
Location:  33.9477°N, 90.3476°W
Report Text: KCKM 230655Z AUTO 02003KT 10SM CLR 09/08 A3018 RMK AO1
Loading
Personal Weather Stations






























Interactive Weather Map
Tropical Storm Tracking
New forecast layout! Learn more

10-Day Weather Forecast

Advertisements
Track Severe Weather on mobile